Time;durP1;ratioP1;P1;durP2;ratioP2;P2;SDS_P1;SDS_P2;PMS_P1;PMS_P2;Temp;Humidity;BMP_temperature;BMP_pressure;BME280_temperature;BME280_humidity;BME280_pressure;Samples;Min_cycle;Max_cycle;Signal;HPM_P1;HPM_P2
2022/03/06 00:00:15;;;;;;;4.25;3.75;;;-2.60;73.80;;;;;;4935238;29;20047;-74
2022/03/06 00:02:42;;;;;;;8.27;4.57;;;-2.60;74.00;;;;;;4942296;29;20051;-74
2022/03/06 00:05:09;;;;;;;4.95;3.90;;;-2.60;74.30;;;;;;4937591;29;20495;-74
2022/03/06 00:07:35;;;;;;;8.20;4.57;;;-2.50;74.70;;;;;;4937171;29;20484;-74
2022/03/06 00:10:03;;;;;;;7.50;4.97;;;-2.60;74.60;;;;;;4935908;29;20544;-74
2022/03/06 00:12:29;;;;;;;7.70;4.13;;;-2.50;74.70;;;;;;4959590;28;20039;-74
2022/03/06 00:14:56;;;;;;;4.15;2.97;;;-2.50;74.30;;;;;;4954731;29;20039;-74
2022/03/06 00:17:22;;;;;;;6.05;4.45;;;-2.50;74.20;;;;;;4938666;29;20050;-74
2022/03/06 00:19:48;;;;;;;5.88;3.95;;;-2.40;74.60;;;;;;4940168;29;20036;-74
2022/03/06 00:22:14;;;;;;;4.90;4.00;;;-2.50;74.70;;;;;;4935446;29;20043;-74
2022/03/06 00:24:41;;;;;;;4.47;4.07;;;-2.60;74.10;;;;;;4936682;29;20401;-74
2022/03/06 00:27:07;;;;;;;6.05;3.83;;;-2.60;74.90;;;;;;4937300;29;20030;-74
2022/03/06 00:29:33;;;;;;;5.45;3.90;;;-2.60;75.10;;;;;;4937269;29;20032;-74
2022/03/06 00:31:59;;;;;;;4.47;4.07;;;-2.60;75.40;;;;;;4935260;29;20478;-74
2022/03/06 00:34:25;;;;;;;6.03;4.28;;;-2.60;75.40;;;;;;4938983;29;20035;-74
2022/03/06 00:36:52;;;;;;;10.55;4.95;;;-2.70;75.70;;;;;;4939006;29;20392;-74
2022/03/06 00:39:18;;;;;;;6.60;3.95;;;-2.70;76.00;;;;;;4936762;29;20032;-74
2022/03/06 00:41:44;;;;;;;4.97;4.22;;;-2.70;76.10;;;;;;4935352;29;20043;-74
2022/03/06 00:44:10;;;;;;;5.35;3.22;;;-2.70;75.90;;;;;;4936607;29;20594;-74
2022/03/06 00:46:37;;;;;;;4.28;3.35;;;-2.70;75.30;;;;;;4955650;28;20050;-74
2022/03/06 00:49:03;;;;;;;4.82;3.85;;;-2.70;75.50;;;;;;4937101;29;20035;-74
2022/03/06 00:51:29;;;;;;;5.15;3.90;;;-2.70;75.90;;;;;;4934457;29;20031;-74
2022/03/06 00:53:55;;;;;;;4.78;3.17;;;-2.70;76.10;;;;;;4936517;29;20035;-74
2022/03/06 00:56:21;;;;;;;5.70;4.28;;;-2.80;76.30;;;;;;4935942;29;20048;-74
2022/03/06 00:58:48;;;;;;;5.07;3.92;;;-2.80;76.30;;;;;;4936102;29;20466;-73
2022/03/06 01:01:15;;;;;;;5.28;3.83;;;-2.80;76.60;;;;;;4949351;28;20047;-74
2022/03/06 01:03:41;;;;;;;5.28;3.95;;;-2.70;76.60;;;;;;4935466;29;20052;-74
2022/03/06 01:06:07;;;;;;;6.93;4.28;;;-2.70;76.30;;;;;;4936216;29;20044;-74
2022/03/06 01:08:33;;;;;;;4.80;3.97;;;-2.60;75.90;;;;;;4935953;29;20381;-74
2022/03/06 01:11:02;;;;;;;3.25;2.70;;;-2.60;75.30;;;;;;4962775;28;20043;-74
2022/03/06 01:13:28;;;;;;;6.13;4.60;;;-2.50;75.50;;;;;;4935002;29;20036;-74
2022/03/06 01:15:54;;;;;;;6.72;4.18;;;-2.50;75.40;;;;;;4936370;29;20047;-74
2022/03/06 01:18:20;;;;;;;4.97;4.03;;;-2.50;75.40;;;;;;4936152;29;20030;-74
2022/03/06 01:20:46;;;;;;;5.45;3.88;;;-2.50;75.40;;;;;;4936623;29;20032;-74
2022/03/06 01:23:13;;;;;;;3.33;2.92;;;-2.60;75.80;;;;;;4932915;29;20036;-74
2022/03/06 01:25:39;;;;;;;5.63;4.18;;;-2.60;76.40;;;;;;4936589;29;20032;-74
2022/03/06 01:28:06;;;;;;;7.78;4.55;;;-2.60;76.00;;;;;;4945129;29;20035;-74
2022/03/06 01:30:32;;;;;;;3.67;3.22;;;-2.40;75.40;;;;;;4944708;29;20063;-73
2022/03/06 01:33:00;;;;;;;4.35;3.58;;;-2.40;74.90;;;;;;4941202;29;20043;-73
2022/03/06 01:35:26;;;;;;;5.60;4.05;;;-2.40;74.70;;;;;;4949714;28;20040;-74
2022/03/06 01:37:52;;;;;;;5.38;4.13;;;-2.20;73.40;;;;;;4941627;29;20048;-73
2022/03/06 01:40:19;;;;;;;4.93;3.28;;;-1.80;71.20;;;;;;4938117;29;20032;-74
2022/03/06 01:42:48;;;;;;;5.05;3.60;;;-1.60;70.10;;;;;;4934332;29;20032;-74
2022/03/06 01:45:15;;;;;;;3.72;3.17;;;-1.50;69.00;;;;;;4934919;29;20043;-74
2022/03/06 01:47:47;;;;;;;4.72;3.40;;;-1.20;68.10;;;;;;4935616;29;20393;-74
2022/03/06 01:50:17;;;;;;;10.02;4.15;;;-1.10;67.30;;;;;;4935356;29;20035;-74
2022/03/06 01:52:44;;;;;;;7.45;4.45;;;-0.80;65.90;;;;;;4934863;29;20449;-73
2022/03/06 01:55:11;;;;;;;7.03;3.33;;;-0.70;65.40;;;;;;4935266;29;20035;-74
2022/03/06 01:57:40;;;;;;;4.38;3.35;;;-0.60;64.80;;;;;;4935026;29;20358;-73
2022/03/06 02:00:10;;;;;;;3.90;3.50;;;-0.40;64.00;;;;;;4935217;29;20051;-73
2022/03/06 02:02:40;;;;;;;6.88;3.92;;;-0.50;64.20;;;;;;4933883;29;20051;-73
2022/03/06 02:05:07;;;;;;;3.85;3.05;;;-0.20;63.10;;;;;;4935354;29;20035;-74
2022/03/06 02:07:34;;;;;;;4.72;3.78;;;-0.10;62.60;;;;;;4934991;29;20038;-73
2022/03/06 02:10:01;;;;;;;3.97;3.40;;;0.00;62.30;;;;;;4935572;29;20046;-73
2022/03/06 02:12:27;;;;;;;5.75;4.25;;;0.00;61.80;;;;;;4932971;29;20039;-73
2022/03/06 02:14:56;;;;;;;4.32;3.92;;;-0.10;62.10;;;;;;4937582;29;20044;-73
2022/03/06 02:17:23;;;;;;;4.88;3.72;;;-0.10;62.30;;;;;;4934904;29;20477;-74
2022/03/06 02:19:58;;;;;;;12.73;4.15;;;-0.30;63.10;;;;;;4961015;28;20036;-73
2022/03/06 02:22:30;;;;;;;7.18;3.97;;;-0.40;63.40;;;;;;4932953;29;20028;-73
2022/03/06 02:24:56;;;;;;;;;;;-0.40;63.50;;;;;;4935716;29;20039;-73
2022/03/06 02:27:23;;;;;;;4.72;4.05;;;-0.40;64.10;;;;;;4934296;29;19915;-74
2022/03/06 02:29:49;;;;;;;6.10;4.25;;;-0.60;63.90;;;;;;4935569;28;20058;-73
2022/03/06 02:32:19;;;;;;;4.32;3.67;;;-0.70;64.80;;;;;;4959275;28;20063;-74
2022/03/06 02:34:47;;;;;;;4.63;3.72;;;-0.80;65.00;;;;;;4948048;29;20494;-73
2022/03/06 02:37:16;;;;;;;3.70;3.40;;;-0.90;66.20;;;;;;4943435;29;20038;-74
2022/03/06 02:39:43;;;;;;;5.80;4.28;;;-1.00;66.80;;;;;;4948048;29;20043;-73
2022/03/06 02:42:10;;;;;;;7.07;4.70;;;-1.10;66.90;;;;;;4933954;29;20032;-74
2022/03/06 02:44:37;;;;;;;5.50;3.90;;;-1.10;66.80;;;;;;4940074;29;20032;-73
2022/03/06 02:47:04;;;;;;;7.63;4.68;;;-1.20;67.20;;;;;;4950194;28;20516;-73
2022/03/06 02:49:30;;;;;;;6.00;4.22;;;-1.30;68.50;;;;;;4938640;29;20577;-74
2022/03/06 02:51:56;;;;;;;12.48;3.92;;;-1.40;69.20;;;;;;4937378;29;20046;-73
2022/03/06 02:54:23;;;;;;;6.07;3.85;;;-1.50;69.90;;;;;;4938107;29;20473;-74
2022/03/06 02:56:49;;;;;;;4.97;4.47;;;-1.50;70.20;;;;;;4938897;29;20104;-73
2022/03/06 02:59:16;;;;;;;5.82;4.30;;;-1.60;70.20;;;;;;4937715;29;20042;-74
2022/03/06 03:01:42;;;;;;;4.32;3.47;;;-1.50;70.20;;;;;;4937024;29;20056;-73
2022/03/06 03:04:09;;;;;;;5.40;3.85;;;-1.50;70.10;;;;;;4938837;29;20124;-74
2022/03/06 03:06:36;;;;;;;4.88;4.20;;;-1.50;70.90;;;;;;4938085;29;20043;-74
2022/03/06 03:09:04;;;;;;;5.03;3.60;;;-1.60;70.90;;;;;;4938542;29;20036;-74
2022/03/06 03:11:31;;;;;;;5.40;4.05;;;-1.60;70.80;;;;;;4951414;28;20046;-73
2022/03/06 03:13:59;;;;;;;5.38;4.18;;;-1.50;70.40;;;;;;4938360;29;20043;-74
2022/03/06 03:16:25;;;;;;;4.57;4.10;;;-1.50;70.80;;;;;;4937918;29;20028;-74
2022/03/06 03:18:52;;;;;;;3.97;3.42;;;-1.50;70.90;;;;;;4938507;29;20445;-74
2022/03/06 03:21:18;;;;;;;5.05;3.92;;;-1.50;70.40;;;;;;4936470;29;20031;-73
2022/03/06 03:23:45;;;;;;;4.88;3.90;;;-1.50;70.90;;;;;;4938459;29;20051;-73
2022/03/06 03:26:11;;;;;;;4.00;2.63;;;-1.50;70.30;;;;;;4937999;29;20031;-74
2022/03/06 03:28:37;;;;;;;6.28;4.22;;;-1.50;71.10;;;;;;4937912;29;20047;-73
2022/03/06 03:31:04;;;;;;;5.28;3.65;;;-1.60;70.70;;;;;;4937498;29;20024;-73
2022/03/06 03:33:30;;;;;;;4.32;3.55;;;-1.40;70.80;;;;;;4954842;29;20042;-74
2022/03/06 03:35:57;;;;;;;5.25;4.25;;;-1.20;69.10;;;;;;4937784;29;20465;-73
2022/03/06 03:38:23;;;;;;;5.57;4.13;;;-1.10;68.50;;;;;;4937706;29;20032;-74
2022/03/06 03:40:49;;;;;;;6.15;5.15;;;-1.10;69.10;;;;;;4937948;29;20039;-74
2022/03/06 03:43:15;;;;;;;12.13;6.60;;;-1.30;69.90;;;;;;4935239;29;20039;-74
2022/03/06 03:45:41;;;;;;;5.07;4.32;;;-1.40;71.50;;;;;;4937598;29;20560;-74
2022/03/06 03:48:07;;;;;;;7.68;4.95;;;-1.60;72.20;;;;;;4937734;29;20470;-73
2022/03/06 03:50:34;;;;;;;4.65;3.92;;;-1.80;73.00;;;;;;4936103;29;20062;-73
2022/03/06 03:53:00;;;;;;;5.15;4.53;;;-1.90;73.10;;;;;;4936638;29;20043;-73
2022/03/06 03:55:26;;;;;;;5.53;3.80;;;-1.90;73.50;;;;;;4941211;29;20050;-73
2022/03/06 03:57:52;;;;;;;4.88;4.38;;;-1.90;74.30;;;;;;4942200;29;20043;-73
2022/03/06 04:00:18;;;;;;;9.75;4.72;;;-2.00;74.10;;;;;;4936477;29;20330;-74
2022/03/06 04:02:45;;;;;;;5.18;3.67;;;-2.00;74.00;;;;;;4935746;29;20055;-74
2022/03/06 04:05:11;;;;;;;7.35;3.78;;;-1.80;72.90;;;;;;4933844;29;20050;-74
2022/03/06 04:07:37;;;;;;;4.32;3.92;;;-1.70;71.90;;;;;;4937943;29;20039;-74
2022/03/06 04:10:04;;;;;;;8.52;7.72;;;-1.60;71.40;;;;;;4937081;29;20062;-75
2022/03/06 04:12:30;;;;;;;9.82;6.90;;;-1.60;71.80;;;;;;4936293;29;20028;-74
2022/03/06 04:14:56;;;;;;;6.32;5.03;;;-1.50;70.80;;;;;;4934573;29;20048;-74
2022/03/06 04:17:22;;;;;;;8.27;5.05;;;-1.20;69.70;;;;;;4936862;29;20473;-74
2022/03/06 04:19:49;;;;;;;6.50;4.78;;;-1.30;70.60;;;;;;4937037;29;20028;-74
2022/03/06 04:22:15;;;;;;;5.32;4.47;;;-1.30;70.20;;;;;;4959981;28;20044;-74
2022/03/06 04:24:41;;;;;;;6.03;4.97;;;-1.00;68.60;;;;;;4937604;29;20046;-74
2022/03/06 04:27:07;;;;;;;7.40;5.53;;;-0.90;68.90;;;;;;4936855;29;20043;-74
2022/03/06 04:29:33;;;;;;;4.80;4.30;;;-0.90;69.10;;;;;;4950945;28;20046;-74
2022/03/06 04:31:59;;;;;;;3.22;2.90;;;-1.00;69.40;;;;;;4935996;29;20040;-74
2022/03/06 04:34:26;;;;;;;4.03;3.42;;;-1.00;69.50;;;;;;4945043;29;20038;-74
2022/03/06 04:36:52;;;;;;;6.90;3.88;;;-1.10;69.40;;;;;;4952621;29;20039;-74
2022/03/06 04:39:18;;;;;;;6.20;4.25;;;-1.00;69.20;;;;;;4936678;29;20047;-74
2022/03/06 04:41:44;;;;;;;7.22;4.20;;;-0.90;68.60;;;;;;4935613;29;20035;-74
2022/03/06 04:44:12;;;;;;;7.13;5.13;;;-0.90;69.20;;;;;;4936382;29;20039;-74
2022/03/06 04:46:38;;;;;;;4.55;3.80;;;-0.90;69.20;;;;;;4936880;29;20046;-74
2022/03/06 04:49:05;;;;;;;6.05;4.32;;;-1.00;70.40;;;;;;4937322;29;20043;-74
2022/03/06 04:51:31;;;;;;;5.65;4.43;;;-1.00;71.30;;;;;;4934631;29;20496;-74
2022/03/06 04:53:57;;;;;;;6.78;5.00;;;-1.10;71.70;;;;;;4936724;29;20040;-74
2022/03/06 04:56:24;;;;;;;4.40;3.25;;;-1.20;71.60;;;;;;4936331;29;20397;-74
2022/03/06 04:58:50;;;;;;;10.70;4.10;;;-1.30;71.80;;;;;;4936983;29;20039;-74
2022/03/06 05:01:17;;;;;;;4.00;3.60;;;-1.20;71.80;;;;;;4934753;29;20640;-74
2022/03/06 05:03:43;;;;;;;4.35;3.78;;;-1.20;71.80;;;;;;4936669;29;20058;-74
2022/03/06 05:06:09;;;;;;;4.53;4.07;;;-1.20;72.10;;;;;;4936592;29;20047;-74
2022/03/06 05:08:35;;;;;;;6.65;4.50;;;-1.20;71.60;;;;;;4935977;29;20028;-74
2022/03/06 05:11:02;;;;;;;5.45;4.28;;;-1.20;71.60;;;;;;4934937;29;20032;-74
2022/03/06 05:13:29;;;;;;;4.15;3.75;;;-1.10;71.60;;;;;;4935978;29;20039;-74
2022/03/06 05:15:55;;;;;;;4.30;3.60;;;-1.10;71.20;;;;;;4936392;29;20039;-74
2022/03/06 05:18:22;;;;;;;6.05;4.75;;;-1.10;70.70;;;;;;4950832;29;20050;-74
2022/03/06 05:20:49;;;;;;;6.15;4.43;;;-1.20;70.90;;;;;;4938999;29;20042;-74
2022/03/06 05:23:17;;;;;;;4.07;3.45;;;-1.30;71.20;;;;;;4935764;29;20477;-74
2022/03/06 05:25:44;;;;;;;7.63;4.55;;;-1.50;71.90;;;;;;4936114;29;20065;-74
2022/03/06 05:28:11;;;;;;;5.93;5.07;;;-1.60;72.80;;;;;;4934527;29;20047;-74
2022/03/06 05:30:37;;;;;;;7.47;4.47;;;-1.70;73.60;;;;;;4938448;29;20032;-74
2022/03/06 05:33:03;;;;;;;9.98;5.05;;;-1.70;74.10;;;;;;4935293;29;20039;-74
2022/03/06 05:35:30;;;;;;;5.63;4.22;;;-1.80;74.60;;;;;;4935934;29;20051;-74
2022/03/06 05:37:56;;;;;;;4.38;3.97;;;-1.90;75.60;;;;;;4935735;29;20371;-74
2022/03/06 05:40:23;;;;;;;15.45;5.25;;;-2.00;75.90;;;;;;4934902;29;20036;-74
2022/03/06 05:42:49;;;;;;;4.55;3.38;;;-2.10;75.90;;;;;;4934081;29;20047;-74
2022/03/06 05:45:15;;;;;;;6.20;4.25;;;-2.10;76.40;;;;;;4935148;29;20028;-74
2022/03/06 05:47:42;;;;;;;7.10;5.20;;;-2.10;76.40;;;;;;4936571;29;20417;-74
2022/03/06 05:50:09;;;;;;;6.20;4.13;;;-2.10;76.30;;;;;;4952928;29;20035;-73
2022/03/06 05:52:35;;;;;;;4.00;3.60;;;-2.00;76.20;;;;;;4948666;29;20035;-75
2022/03/06 05:55:03;;;;;;;5.65;4.57;;;-2.00;75.80;;;;;;4942301;29;20035;-75
2022/03/06 05:57:30;;;;;;;5.47;4.90;;;-1.80;75.50;;;;;;4936554;29;20040;-75
2022/03/06 05:59:56;;;;;;;6.18;5.03;;;-1.80;75.10;;;;;;4938370;29;20050;-75
2022/03/06 06:02:23;;;;;;;11.23;6.57;;;-1.70;75.20;;;;;;4938798;29;20537;-74
2022/03/06 06:04:50;;;;;;;6.88;5.50;;;-1.70;75.10;;;;;;4935135;29;20031;-74
2022/03/06 06:07:17;;;;;;;6.88;5.10;;;-1.60;74.50;;;;;;4935374;29;20036;-75
2022/03/06 06:09:43;;;;;;;8.23;5.47;;;-1.50;74.30;;;;;;4942589;29;20040;-74
2022/03/06 06:12:10;;;;;;;11.63;5.65;;;-1.50;73.90;;;;;;4933942;29;20032;-74
2022/03/06 06:14:36;;;;;;;6.38;5.28;;;-1.20;73.00;;;;;;4934691;29;20066;-74
2022/03/06 06:17:02;;;;;;;6.70;4.65;;;-1.10;72.90;;;;;;4934998;29;20135;-74
2022/03/06 06:19:28;;;;;;;7.10;4.20;;;-1.10;72.50;;;;;;4934896;29;20469;-74
2022/03/06 06:21:55;;;;;;;9.55;5.80;;;-1.00;72.50;;;;;;4933484;29;20055;-74
2022/03/06 06:24:21;;;;;;;4.57;3.78;;;-0.90;72.30;;;;;;4939943;29;20039;-74
2022/03/06 06:26:47;;;;;;;7.53;4.90;;;-0.80;71.90;;;;;;4942751;29;20042;-74
2022/03/06 06:29:14;;;;;;;5.70;4.47;;;-0.70;71.50;;;;;;4949019;29;20031;-73
2022/03/06 06:31:40;;;;;;;4.32;3.85;;;-0.60;71.40;;;;;;4934261;29;20375;-73
2022/03/06 06:34:07;;;;;;;5.68;4.25;;;-0.40;70.60;;;;;;4933065;29;20504;-74
2022/03/06 06:36:34;;;;;;;6.43;4.57;;;-0.10;69.50;;;;;;4934443;29;20032;-74
2022/03/06 06:39:00;;;;;;;8.93;4.93;;;0.10;69.10;;;;;;4935306;29;20044;-73
2022/03/06 06:41:26;;;;;;;7.28;4.47;;;0.10;68.60;;;;;;4932999;29;20496;-74
2022/03/06 06:43:52;;;;;;;6.57;5.20;;;0.20;68.60;;;;;;4934577;29;20051;-74
2022/03/06 06:46:18;;;;;;;5.07;4.55;;;0.20;69.00;;;;;;4934514;29;20050;-74
2022/03/06 06:48:44;;;;;;;7.97;5.10;;;0.20;69.30;;;;;;4935320;29;20462;-74
2022/03/06 06:51:11;;;;;;;6.35;4.85;;;0.20;69.40;;;;;;4933699;29;20038;-74
2022/03/06 06:53:37;;;;;;;11.05;5.63;;;0.30;68.80;;;;;;4934696;29;20040;-74
2022/03/06 06:56:03;;;;;;;7.90;4.95;;;0.50;68.40;;;;;;4934700;29;20044;-74
2022/03/06 06:58:30;;;;;;;6.18;4.25;;;0.50;67.70;;;;;;4934719;29;20028;-74
2022/03/06 07:00:56;;;;;;;7.57;5.55;;;0.60;67.40;;;;;;4933051;29;20833;-74
2022/03/06 07:03:22;;;;;;;6.95;4.97;;;0.80;66.70;;;;;;4934348;29;20051;-74
2022/03/06 07:05:48;;;;;;;4.25;3.55;;;0.90;66.30;;;;;;4939468;29;20039;-74
2022/03/06 07:08:14;;;;;;;7.70;4.60;;;0.90;66.90;;;;;;4945724;29;20058;-74
2022/03/06 07:10:41;;;;;;;5.05;4.05;;;0.90;67.80;;;;;;4934150;29;20387;-74
2022/03/06 07:13:07;;;;;;;5.43;4.10;;;0.90;66.40;;;;;;4933366;29;20036;-74
2022/03/06 07:15:33;;;;;;;4.93;4.47;;;1.10;66.20;;;;;;4939561;29;20495;-73
2022/03/06 07:18:00;;;;;;;8.27;5.50;;;1.20;65.40;;;;;;4942436;29;20036;-74
2022/03/06 07:20:28;;;;;;;5.03;4.03;;;1.20;65.50;;;;;;4934462;29;20054;-74
2022/03/06 07:22:54;;;;;;;5.25;4.60;;;1.30;64.80;;;;;;4933481;29;20036;-74
2022/03/06 07:25:21;;;;;;;6.47;5.05;;;1.40;64.40;;;;;;4934255;29;20040;-74
2022/03/06 07:27:48;;;;;;;5.78;4.03;;;1.50;63.60;;;;;;4953604;29;20036;-74
2022/03/06 07:30:14;;;;;;;5.60;4.45;;;1.60;63.30;;;;;;4936982;29;20032;-74
2022/03/06 07:32:45;;;;;;;5.20;4.70;;;1.70;63.10;;;;;;4933845;29;20031;-74
2022/03/06 07:35:13;;;;;;;5.43;4.03;;;1.80;63.40;;;;;;4938375;29;20027;-74
2022/03/06 07:37:40;;;;;;;5.90;4.32;;;1.80;63.40;;;;;;4937863;29;20046;-74
2022/03/06 07:40:08;;;;;;;5.53;4.65;;;1.90;62.40;;;;;;4938021;29;20476;-74
2022/03/06 07:42:34;;;;;;;4.95;4.07;;;2.00;62.10;;;;;;4936352;29;20093;-74
2022/03/06 07:45:01;;;;;;;7.85;4.85;;;2.10;60.60;;;;;;4937682;29;20035;-74
2022/03/06 07:47:27;;;;;;;9.48;3.67;;;2.20;60.70;;;;;;4939467;29;20044;-74
2022/03/06 07:49:54;;;;;;;5.85;5.25;;;2.40;60.80;;;;;;4938227;29;20035;-74
2022/03/06 07:52:20;;;;;;;4.88;4.47;;;2.40;60.20;;;;;;4936244;29;20051;-74
2022/03/06 07:54:46;;;;;;;6.43;5.45;;;2.60;60.30;;;;;;4958948;28;20039;-73
2022/03/06 07:57:13;;;;;;;5.28;4.50;;;2.70;59.70;;;;;;4941515;29;20409;-74
2022/03/06 07:59:39;;;;;;;8.70;4.30;;;2.70;59.40;;;;;;4938469;29;20032;-73
2022/03/06 08:02:05;;;;;;;6.35;4.90;;;2.90;59.30;;;;;;4953893;29;20503;-73
2022/03/06 08:04:31;;;;;;;4.78;3.67;;;3.00;58.90;;;;;;4957995;29;20047;-73
2022/03/06 08:06:57;;;;;;;6.97;4.47;;;3.10;57.80;;;;;;4960515;28;20043;-73
2022/03/06 08:09:24;;;;;;;4.95;4.18;;;3.20;57.60;;;;;;4939990;29;20489;-74
2022/03/06 08:11:54;;;;;;;7.18;4.85;;;3.40;57.20;;;;;;4943872;29;20034;-73
2022/03/06 08:14:20;;;;;;;5.50;4.25;;;3.70;56.70;;;;;;4941517;29;20039;-73
2022/03/06 08:16:46;;;;;;;7.75;4.40;;;4.10;55.40;;;;;;4938960;29;20053;-73
2022/03/06 08:19:13;;;;;;;4.53;3.88;;;4.80;54.30;;;;;;4951404;29;20043;-73
2022/03/06 08:21:39;;;;;;;4.72;4.20;;;5.60;52.70;;;;;;4935452;29;20047;-74
2022/03/06 08:24:06;;;;;;;8.48;4.38;;;5.60;50.90;;;;;;4937536;29;20035;-74
2022/03/06 08:26:32;;;;;;;6.75;4.43;;;5.60;50.90;;;;;;4937505;29;20058;-73
2022/03/06 08:28:58;;;;;;;6.38;4.75;;;5.50;50.20;;;;;;4936975;29;20028;-73
2022/03/06 08:31:24;;;;;;;6.18;4.28;;;5.40;50.30;;;;;;4959271;28;20043;-73
2022/03/06 08:33:53;;;;;;;5.65;4.78;;;5.70;50.00;;;;;;4937907;29;20052;-73
2022/03/06 08:36:20;;;;;;;5.90;4.35;;;5.90;49.70;;;;;;4939548;29;20043;-74
2022/03/06 08:38:46;;;;;;;5.75;4.60;;;6.00;48.30;;;;;;4937073;29;20043;-74
2022/03/06 08:41:13;;;;;;;5.53;4.55;;;6.20;48.70;;;;;;4935094;29;20067;-74
2022/03/06 08:43:39;;;;;;;5.93;4.47;;;7.00;47.20;;;;;;4936407;29;20031;-74
2022/03/06 08:46:05;;;;;;;5.60;4.15;;;7.10;45.90;;;;;;4936387;28;20046;-73
2022/03/06 08:48:32;;;;;;;5.72;4.82;;;6.90;46.40;;;;;;4952152;28;20044;-75
2022/03/06 08:50:58;;;;;;;9.43;5.80;;;7.80;44.20;;;;;;4936019;29;20812;-73
2022/03/06 08:53:25;;;;;;;7.80;4.35;;;7.80;43.30;;;;;;4959755;28;20040;-73
2022/03/06 08:55:51;;;;;;;7.05;5.50;;;7.60;43.20;;;;;;4936810;29;20031;-73
2022/03/06 08:58:17;;;;;;;9.15;5.10;;;7.80;42.70;;;;;;4939091;29;20377;-75
2022/03/06 09:00:44;;;;;;;7.63;4.60;;;7.50;41.80;;;;;;4948152;29;20051;-74
2022/03/06 09:03:10;;;;;;;5.90;4.53;;;8.20;41.10;;;;;;4936517;29;20047;-73
2022/03/06 09:05:40;;;;;;;5.22;4.20;;;8.00;42.40;;;;;;4940435;29;20123;-73
2022/03/06 09:08:10;;;;;;;6.05;4.22;;;8.40;41.70;;;;;;4946746;29;20036;-73
2022/03/06 09:10:38;;;;;;;9.18;7.03;;;8.70;40.20;;;;;;4939835;29;20237;-73
2022/03/06 09:13:05;;;;;;;6.43;5.38;;;7.90;40.60;;;;;;4936387;29;20027;-73
2022/03/06 09:15:32;;;;;;;5.55;4.47;;;8.00;40.60;;;;;;4948939;29;20032;-73
2022/03/06 09:17:58;;;;;;;5.20;4.75;;;8.10;41.20;;;;;;4936373;29;20036;-73
2022/03/06 09:20:26;;;;;;;5.05;4.32;;;9.00;39.70;;;;;;4935319;29;20040;-74
2022/03/06 09:22:53;;;;;;;6.78;5.05;;;8.20;39.60;;;;;;4934189;29;20055;-73
2022/03/06 09:25:19;;;;;;;7.22;4.93;;;8.20;39.90;;;;;;4947670;29;20040;-74
2022/03/06 09:27:46;;;;;;;5.22;4.13;;;8.10;39.80;;;;;;4936055;29;20035;-73
2022/03/06 09:30:13;;;;;;;5.45;4.38;;;8.40;39.90;;;;;;4941460;29;20039;-74
2022/03/06 09:32:40;;;;;;;6.80;4.60;;;8.50;39.90;;;;;;4936497;29;20040;-73
2022/03/06 09:35:07;;;;;;;7.05;4.90;;;7.80;39.60;;;;;;4939586;29;20051;-73
2022/03/06 09:37:34;;;;;;;4.25;3.85;;;7.70;39.70;;;;;;4936276;29;20035;-73
2022/03/06 09:40:02;;;;;;;8.20;4.60;;;8.90;39.20;;;;;;4954323;28;20043;-73
2022/03/06 09:42:28;;;;;;;7.78;4.40;;;8.50;38.20;;;;;;4935805;29;20027;-73
2022/03/06 09:44:55;;;;;;;6.05;4.97;;;8.40;38.90;;;;;;4938287;29;20047;-73
2022/03/06 09:47:23;;;;;;;6.95;5.03;;;8.60;38.40;;;;;;4935076;29;20051;-73
2022/03/06 09:49:49;;;;;;;4.70;4.18;;;8.30;38.50;;;;;;4945252;29;20055;-74
2022/03/06 09:52:15;;;;;;;8.65;4.80;;;8.20;38.00;;;;;;4945433;29;20461;-74
2022/03/06 09:54:42;;;;;;;8.18;4.75;;;7.80;38.80;;;;;;4938969;29;20483;-73
2022/03/06 09:57:08;;;;;;;5.50;4.80;;;8.50;39.00;;;;;;4944871;28;20043;-73
2022/03/06 09:59:34;;;;;;;5.32;4.82;;;8.80;38.20;;;;;;4951873;29;20031;-73
2022/03/06 10:02:05;;;;;;;6.70;4.95;;;7.80;38.40;;;;;;4937759;29;20506;-74
2022/03/06 10:04:34;;;;;;;5.20;4.70;;;6.90;39.80;;;;;;4939205;29;20052;-73
2022/03/06 10:07:05;;;;;;;6.20;5.13;;;6.50;40.10;;;;;;4953127;28;20031;-75
2022/03/06 10:09:33;;;;;;;4.85;4.35;;;6.80;40.20;;;;;;4949200;29;20496;-74
2022/03/06 10:12:00;;;;;;;5.38;4.60;;;6.90;40.50;;;;;;4933810;29;20500;-74
2022/03/06 10:14:38;;;;;;;5.05;4.65;;;6.70;40.20;;;;;;4940688;29;20051;-74
2022/03/06 10:17:17;;;;;;;7.13;4.63;;;6.40;41.50;;;;;;4948468;29;20022;-74
2022/03/06 10:20:03;;;;;;;6.82;5.18;;;6.40;40.90;;;;;;4941029;29;20043;-73
2022/03/06 10:22:34;;;;;;;3.88;3.55;;;6.20;41.00;;;;;;4934242;29;20047;-74
2022/03/06 10:25:16;;;;;;;4.82;4.43;;;6.30;41.20;;;;;;4944799;29;20035;-73
2022/03/06 10:27:57;;;;;;;5.78;4.78;;;6.60;40.90;;;;;;4935559;29;20040;-73
2022/03/06 10:30:29;;;;;;;5.63;4.78;;;6.40;40.50;;;;;;4933712;29;20040;-74
2022/03/06 10:33:10;;;;;;;6.00;4.60;;;6.40;40.70;;;;;;4939917;29;20042;-73
2022/03/06 10:35:39;;;;;;;5.80;4.43;;;6.70;40.40;;;;;;4936806;29;20028;-73
2022/03/06 10:38:29;;;;;;;4.95;4.45;;;6.80;40.50;;;;;;4946062;29;20479;-73
2022/03/06 10:40:58;;;;;;;4.93;4.43;;;6.70;40.70;;;;;;4938170;29;20043;-75
2022/03/06 10:43:29;;;;;;;6.00;5.35;;;6.90;40.00;;;;;;4950867;28;20032;-74
2022/03/06 10:46:09;;;;;;;5.70;4.90;;;7.30;40.30;;;;;;4945847;29;20043;-74
2022/03/06 10:48:36;;;;;;;4.55;3.67;;;7.20;39.50;;;;;;4948043;29;20276;-73
2022/03/06 10:51:05;;;;;;;5.80;4.28;;;7.40;39.60;;;;;;4941720;29;20035;-73
2022/03/06 10:53:31;;;;;;;7.43;5.10;;;6.90;40.20;;;;;;4933010;29;20047;-73
2022/03/06 10:56:15;;;;;;;4.95;4.15;;;6.70;40.60;;;;;;4934703;29;20032;-73
2022/03/06 10:58:43;;;;;;;4.00;3.42;;;6.70;40.60;;;;;;4934955;29;20468;-72
2022/03/06 11:01:10;;;;;;;4.82;4.00;;;7.00;40.70;;;;;;4930143;29;20073;-76
2022/03/06 11:03:37;;;;;;;4.70;4.30;;;7.40;41.00;;;;;;4931407;29;20044;-73
2022/03/06 11:06:07;;;;;;;6.88;4.32;;;7.40;40.00;;;;;;4934475;29;20062;-75
2022/03/06 11:08:34;;;;;;;6.53;4.13;;;7.40;40.10;;;;;;4936252;29;20040;-73
2022/03/06 11:11:03;;;;;;;6.38;4.30;;;7.40;39.90;;;;;;4940051;29;20516;-74
2022/03/06 11:13:30;;;;;;;5.55;4.95;;;7.50;40.10;;;;;;4937117;29;20039;-74
2022/03/06 11:15:57;;;;;;;7.55;5.05;;;7.60;40.00;;;;;;4937983;29;20036;-73
2022/03/06 11:18:25;;;;;;;10.15;4.13;;;7.40;40.10;;;;;;4937121;29;20133;-73
2022/03/06 11:20:53;;;;;;;4.65;4.25;;;7.20;40.20;;;;;;4943436;29;20035;-73
2022/03/06 11:23:28;;;;;;;5.10;4.53;;;6.90;40.10;;;;;;4951435;28;20388;-73
2022/03/06 11:26:09;;;;;;;6.70;4.20;;;7.10;40.70;;;;;;4938801;29;20049;-73
2022/03/06 11:28:56;;;;;;;6.50;4.57;;;6.80;40.70;;;;;;4937599;29;20062;-73
2022/03/06 11:31:23;;;;;;;5.63;4.15;;;6.50;41.40;;;;;;4936220;29;20039;-73
2022/03/06 11:34:03;;;;;;;6.68;5.20;;;6.80;41.20;;;;;;4948917;29;20058;-72
2022/03/06 11:36:30;;;;;;;6.07;4.13;;;7.20;40.40;;;;;;4940610;29;20042;-73
2022/03/06 11:38:57;;;;;;;5.53;3.88;;;7.60;40.20;;;;;;4938693;29;20054;-73
2022/03/06 11:41:27;;;;;;;4.93;4.53;;;7.70;39.80;;;;;;4935946;29;20043;-73
2022/03/06 11:43:54;;;;;;;12.32;4.93;;;7.40;39.90;;;;;;4937333;29;20051;-73
2022/03/06 11:46:25;;;;;;;5.13;4.55;;;7.10;41.30;;;;;;4950585;29;20378;-74
2022/03/06 11:48:51;;;;;;;7.00;4.68;;;6.70;40.70;;;;;;4949820;29;20024;-73
2022/03/06 11:51:23;;;;;;;6.05;3.80;;;6.50;41.00;;;;;;4935998;29;20044;-75
2022/03/06 11:54:01;;;;;;;7.35;4.28;;;6.60;41.40;;;;;;4944050;29;20039;-73
2022/03/06 11:56:39;;;;;;;5.13;4.22;;;6.80;41.00;;;;;;4943721;29;20039;-73
2022/03/06 11:59:11;;;;;;;5.50;3.92;;;6.90;40.70;;;;;;4937574;28;20036;-73
2022/03/06 12:01:42;;;;;;;8.57;4.20;;;7.00;40.90;;;;;;4936775;29;20055;-75
2022/03/06 12:04:18;;;;;;;5.38;3.83;;;7.10;40.10;;;;;;4949316;29;20050;-74
2022/03/06 12:06:56;;;;;;;5.75;4.82;;;6.70;41.00;;;;;;4937716;29;20043;-73
2022/03/06 12:09:24;;;;;;;4.65;4.00;;;6.80;40.50;;;;;;4959723;28;20051;-73
2022/03/06 12:11:54;;;;;;;7.35;4.25;;;6.80;41.10;;;;;;4950741;28;20047;-74
2022/03/06 12:14:37;;;;;;;5.95;4.13;;;6.50;40.30;;;;;;4938355;29;20035;-73
2022/03/06 12:17:03;;;;;;;4.43;3.90;;;6.70;40.60;;;;;;4937248;29;20066;-73
2022/03/06 12:19:31;;;;;;;5.32;4.38;;;7.00;40.60;;;;;;4934362;29;20039;-73
2022/03/06 12:22:15;;;;;;;7.53;4.90;;;7.30;40.60;;;;;;4939292;29;20048;-73
2022/03/06 12:24:44;;;;;;;4.43;4.03;;;7.10;40.00;;;;;;4936736;29;20036;-73
2022/03/06 12:27:23;;;;;;;7.13;4.70;;;7.30;40.50;;;;;;4942339;29;20039;-73
2022/03/06 12:29:50;;;;;;;5.18;4.63;;;7.30;39.90;;;;;;4939180;29;20044;-73
2022/03/06 12:32:25;;;;;;;5.50;4.63;;;7.30;39.80;;;;;;4936232;29;20051;-74
2022/03/06 12:35:08;;;;;;;4.95;4.20;;;6.90;40.40;;;;;;4937343;29;20039;-73
2022/03/06 12:37:50;;;;;;;10.07;5.40;;;7.00;40.40;;;;;;4936477;29;20027;-73
2022/03/06 12:40:19;;;;;;;5.13;4.63;;;6.90;40.30;;;;;;4936608;29;20047;-75
2022/03/06 12:42:51;;;;;;;4.40;4.05;;;7.00;40.40;;;;;;4949230;29;20042;-73
2022/03/06 12:45:19;;;;;;;5.78;5.20;;;6.90;40.10;;;;;;4941840;29;20044;-73
2022/03/06 12:47:46;;;;;;;5.95;4.75;;;6.80;40.20;;;;;;4936437;29;20036;-72
2022/03/06 12:50:16;;;;;;;5.35;4.50;;;7.00;40.60;;;;;;4936511;29;20054;-72
2022/03/06 12:52:43;;;;;;;4.88;4.22;;;7.20;39.80;;;;;;4941357;29;20398;-73